sensor_id;sensor_type;location;lat;lon;timestamp;pressure;altitude;pressure_sealevel;temperature;humidity
4415;BME280;2220;42.670;23.398;2022-12-20T00:01:22;96399.16;;;-0.38;100.00
4415;BME280;2220;42.670;23.398;2022-12-20T00:03:53;96407.59;;;-0.45;100.00
4415;BME280;2220;42.670;23.398;2022-12-20T00:06:19;96405.91;;;-0.37;100.00
4415;BME280;2220;42.670;23.398;2022-12-20T00:08:45;96396.09;;;-0.59;100.00
4415;BME280;2220;42.670;23.398;2022-12-20T00:11:10;96400.91;;;-0.20;100.00
4415;BME280;2220;42.670;23.398;2022-12-20T00:13:36;96400.84;;;-0.29;100.00
4415;BME280;2220;42.670;23.398;2022-12-20T00:16:13;96398.44;;;0.14;100.00
4415;BME280;2220;42.670;23.398;2022-12-20T00:18:40;96393.47;;;0.12;100.00
4415;BME280;2220;42.670;23.398;2022-12-20T00:21:09;96394.41;;;0.37;100.00
4415;BME280;2220;42.670;23.398;2022-12-20T00:23:35;96374.28;;;0.16;100.00
4415;BME280;2220;42.670;23.398;2022-12-20T00:26:02;96368.78;;;0.37;100.00
4415;BME280;2220;42.670;23.398;2022-12-20T00:28:27;96333.13;;;-0.52;100.00
4415;BME280;2220;42.670;23.398;2022-12-20T00:30:54;96334.16;;;-0.63;100.00
4415;BME280;2220;42.670;23.398;2022-12-20T00:33:19;96347.19;;;-0.56;100.00
4415;BME280;2220;42.670;23.398;2022-12-20T00:35:45;96333.88;;;-0.60;100.00
4415;BME280;2220;42.670;23.398;2022-12-20T00:38:10;96327.06;;;-0.69;100.00
4415;BME280;2220;42.670;23.398;2022-12-20T00:40:36;96333.41;;;-0.73;100.00
4415;BME280;2220;42.670;23.398;2022-12-20T00:43:01;96338.59;;;-0.65;100.00
4415;BME280;2220;42.670;23.398;2022-12-20T00:45:27;96344.84;;;-0.67;100.00
4415;BME280;2220;42.670;23.398;2022-12-20T00:47:52;96337.59;;;-0.54;100.00
4415;BME280;2220;42.670;23.398;2022-12-20T00:50:18;96326.03;;;-0.76;100.00
4415;BME280;2220;42.670;23.398;2022-12-20T00:52:43;96334.69;;;-0.77;100.00
4415;BME280;2220;42.670;23.398;2022-12-20T00:55:09;96338.69;;;-0.74;100.00
4415;BME280;2220;42.670;23.398;2022-12-20T00:57:34;96339.56;;;-0.66;100.00
4415;BME280;2220;42.670;23.398;2022-12-20T00:59:59;96332.69;;;-0.47;100.00
4415;BME280;2220;42.670;23.398;2022-12-20T01:02:25;96344.47;;;-0.11;100.00
4415;BME280;2220;42.670;23.398;2022-12-20T01:04:50;96340.28;;;-0.38;100.00
4415;BME280;2220;42.670;23.398;2022-12-20T01:07:16;96324.94;;;-0.73;100.00
4415;BME280;2220;42.670;23.398;2022-12-20T01:09:41;96334.88;;;-0.52;100.00
4415;BME280;2220;42.670;23.398;2022-12-20T01:12:06;96329.41;;;-0.40;100.00
4415;BME280;2220;42.670;23.398;2022-12-20T01:14:32;96312.81;;;-0.53;100.00
4415;BME280;2220;42.670;23.398;2022-12-20T01:16:58;96300.91;;;-0.63;100.00
4415;BME280;2220;42.670;23.398;2022-12-20T01:19:23;96312.72;;;-0.44;100.00
4415;BME280;2220;42.670;23.398;2022-12-20T01:21:49;96284.91;;;-0.39;100.00
4415;BME280;2220;42.670;23.398;2022-12-20T01:24:16;96282.75;;;-0.51;100.00
4415;BME280;2220;42.670;23.398;2022-12-20T01:26:43;96285.09;;;-0.58;100.00
4415;BME280;2220;42.670;23.398;2022-12-20T01:29:09;96279.16;;;-0.59;100.00
4415;BME280;2220;42.670;23.398;2022-12-20T01:31:34;96266.94;;;-0.47;100.00
4415;BME280;2220;42.670;23.398;2022-12-20T01:34:00;96255.50;;;-0.78;100.00
4415;BME280;2220;42.670;23.398;2022-12-20T01:36:28;96248.63;;;-0.78;100.00
4415;BME280;2220;42.670;23.398;2022-12-20T01:41:32;96241.06;;;-0.88;100.00
4415;BME280;2220;42.670;23.398;2022-12-20T01:44:49;96239.78;;;-0.83;100.00
4415;BME280;2220;42.670;23.398;2022-12-20T01:46:52;96247.09;;;-0.89;100.00
4415;BME280;2220;42.670;23.398;2022-12-20T01:49:45;96232.28;;;-0.85;100.00
4415;BME280;2220;42.670;23.398;2022-12-20T01:52:34;96233.66;;;-0.91;100.00
4415;BME280;2220;42.670;23.398;2022-12-20T01:58:23;96200.44;;;-1.08;100.00
4415;BME280;2220;42.670;23.398;2022-12-20T02:00:30;96211.28;;;-0.89;100.00
4415;BME280;2220;42.670;23.398;2022-12-20T02:02:58;96200.75;;;-1.11;100.00
4415;BME280;2220;42.670;23.398;2022-12-20T02:05:25;96207.06;;;-0.98;100.00
4415;BME280;2220;42.670;23.398;2022-12-20T02:07:52;96208.09;;;-0.91;100.00
4415;BME280;2220;42.670;23.398;2022-12-20T02:10:20;96205.16;;;-0.78;100.00
4415;BME280;2220;42.670;23.398;2022-12-20T02:12:49;96192.59;;;-1.07;100.00
4415;BME280;2220;42.670;23.398;2022-12-20T02:31:52;96192.75;;;-1.08;100.00
4415;BME280;2220;42.670;23.398;2022-12-20T02:34:21;96194.44;;;-0.99;100.00
4415;BME280;2220;42.670;23.398;2022-12-20T02:36:49;96196.84;;;-0.98;100.00
4415;BME280;2220;42.670;23.398;2022-12-20T02:39:15;96180.63;;;-1.06;100.00
4415;BME280;2220;42.670;23.398;2022-12-20T02:41:49;96195.59;;;-0.94;100.00
4415;BME280;2220;42.670;23.398;2022-12-20T02:44:18;96205.09;;;-0.86;100.00
4415;BME280;2220;42.670;23.398;2022-12-20T02:47:07;96197.03;;;-0.91;100.00
4415;BME280;2220;42.670;23.398;2022-12-20T02:49:36;96208.97;;;-1.00;100.00
4415;BME280;2220;42.670;23.398;2022-12-20T02:52:04;96213.66;;;-0.95;100.00
4415;BME280;2220;42.670;23.398;2022-12-20T02:54:31;96216.06;;;-0.94;100.00
4415;BME280;2220;42.670;23.398;2022-12-20T02:57:02;96210.75;;;-1.18;100.00
4415;BME280;2220;42.670;23.398;2022-12-20T02:59:39;96210.44;;;-1.15;100.00
4415;BME280;2220;42.670;23.398;2022-12-20T03:02:06;96225.84;;;-1.07;100.00
4415;BME280;2220;42.670;23.398;2022-12-20T03:04:36;96226.97;;;-1.09;100.00
4415;BME280;2220;42.670;23.398;2022-12-20T03:07:09;96228.88;;;-1.11;100.00
4415;BME280;2220;42.670;23.398;2022-12-20T03:09:40;96235.38;;;-0.73;100.00
4415;BME280;2220;42.670;23.398;2022-12-20T03:12:07;96223.06;;;-1.31;100.00
4415;BME280;2220;42.670;23.398;2022-12-20T03:14:33;96220.03;;;-1.35;100.00
4415;BME280;2220;42.670;23.398;2022-12-20T03:16:59;96226.81;;;-1.26;100.00
4415;BME280;2220;42.670;23.398;2022-12-20T03:19:24;96225.56;;;-1.22;100.00
4415;BME280;2220;42.670;23.398;2022-12-20T03:21:50;96221.56;;;-1.24;100.00
4415;BME280;2220;42.670;23.398;2022-12-20T03:24:16;96232.19;;;-1.29;100.00
4415;BME280;2220;42.670;23.398;2022-12-20T03:26:42;96223.22;;;-1.33;100.00
4415;BME280;2220;42.670;23.398;2022-12-20T03:29:08;96229.28;;;-1.34;100.00
4415;BME280;2220;42.670;23.398;2022-12-20T03:31:34;96232.81;;;-1.35;100.00
4415;BME280;2220;42.670;23.398;2022-12-20T03:33:59;96222.34;;;-1.42;100.00
4415;BME280;2220;42.670;23.398;2022-12-20T03:36:25;96223.56;;;-1.46;100.00
4415;BME280;2220;42.670;23.398;2022-12-20T03:38:51;96226.28;;;-1.47;100.00
4415;BME280;2220;42.670;23.398;2022-12-20T03:41:17;96224.16;;;-1.52;100.00
4415;BME280;2220;42.670;23.398;2022-12-20T03:43:43;96231.69;;;-1.50;100.00
4415;BME280;2220;42.670;23.398;2022-12-20T03:46:09;96223.56;;;-1.63;100.00
4415;BME280;2220;42.670;23.398;2022-12-20T03:48:34;96217.94;;;-1.67;100.00
4415;BME280;2220;42.670;23.398;2022-12-20T03:51:00;96222.66;;;-1.72;100.00
4415;BME280;2220;42.670;23.398;2022-12-20T03:53:26;96222.06;;;-1.84;100.00
4415;BME280;2220;42.670;23.398;2022-12-20T03:55:51;96232.09;;;-1.73;100.00
4415;BME280;2220;42.670;23.398;2022-12-20T03:58:17;96229.53;;;-1.73;100.00
4415;BME280;2220;42.670;23.398;2022-12-20T04:00:42;96234.06;;;-1.66;100.00
4415;BME280;2220;42.670;23.398;2022-12-20T04:03:07;96240.41;;;-1.71;100.00
4415;BME280;2220;42.670;23.398;2022-12-20T04:05:33;96238.66;;;-1.70;100.00
4415;BME280;2220;42.670;23.398;2022-12-20T04:07:58;96237.34;;;-1.74;100.00
4415;BME280;2220;42.670;23.398;2022-12-20T04:10:24;96234.03;;;-1.84;100.00
4415;BME280;2220;42.670;23.398;2022-12-20T04:12:49;96230.84;;;-1.96;100.00
4415;BME280;2220;42.670;23.398;2022-12-20T04:15:15;96230.84;;;-1.96;100.00
4415;BME280;2220;42.670;23.398;2022-12-20T04:17:41;96226.03;;;-1.99;100.00
4415;BME280;2220;42.670;23.398;2022-12-20T04:20:07;96238.91;;;-1.91;100.00
4415;BME280;2220;42.670;23.398;2022-12-20T04:22:49;96223.69;;;-2.20;100.00
4415;BME280;2220;42.670;23.398;2022-12-20T04:25:18;96224.34;;;-2.18;100.00
4415;BME280;2220;42.670;23.398;2022-12-20T04:27:44;96227.84;;;-2.19;100.00
4415;BME280;2220;42.670;23.398;2022-12-20T04:30:10;96233.63;;;-2.17;100.00
4415;BME280;2220;42.670;23.398;2022-12-20T04:32:36;96228.28;;;-2.33;100.00
4415;BME280;2220;42.670;23.398;2022-12-20T04:35:02;96237.97;;;-2.27;100.00
4415;BME280;2220;42.670;23.398;2022-12-20T04:37:29;96235.53;;;-2.29;100.00
4415;BME280;2220;42.670;23.398;2022-12-20T04:39:54;96230.84;;;-2.33;100.00
4415;BME280;2220;42.670;23.398;2022-12-20T04:42:20;96226.19;;;-2.38;100.00
4415;BME280;2220;42.670;23.398;2022-12-20T04:44:46;96236.50;;;-2.30;100.00
4415;BME280;2220;42.670;23.398;2022-12-20T04:47:11;96229.94;;;-2.32;100.00
4415;BME280;2220;42.670;23.398;2022-12-20T04:49:37;96229.38;;;-2.36;100.00
4415;BME280;2220;42.670;23.398;2022-12-20T04:52:02;96244.81;;;-2.28;100.00
4415;BME280;2220;42.670;23.398;2022-12-20T04:54:46;96220.63;;;-2.33;100.00
4415;BME280;2220;42.670;23.398;2022-12-20T04:57:12;96231.25;;;-2.28;100.00
4415;BME280;2220;42.670;23.398;2022-12-20T04:59:38;96233.94;;;-2.30;100.00
4415;BME280;2220;42.670;23.398;2022-12-20T05:02:03;96229.63;;;-2.29;100.00
4415;BME280;2220;42.670;23.398;2022-12-20T05:04:29;96240.00;;;-2.31;100.00
4415;BME280;2220;42.670;23.398;2022-12-20T05:06:54;96235.03;;;-2.32;100.00
4415;BME280;2220;42.670;23.398;2022-12-20T05:09:20;96233.13;;;-2.30;100.00
4415;BME280;2220;42.670;23.398;2022-12-20T05:11:45;96234.09;;;-2.31;100.00
4415;BME280;2220;42.670;23.398;2022-12-20T05:14:11;96236.06;;;-2.25;100.00
4415;BME280;2220;42.670;23.398;2022-12-20T05:16:36;96230.94;;;-2.25;100.00
4415;BME280;2220;42.670;23.398;2022-12-20T05:19:02;96241.47;;;-2.28;100.00
4415;BME280;2220;42.670;23.398;2022-12-20T05:21:29;96222.63;;;-2.27;100.00
4415;BME280;2220;42.670;23.398;2022-12-20T05:24:13;96227.22;;;-2.31;100.00
4415;BME280;2220;42.670;23.398;2022-12-20T05:26:57;96233.28;;;-2.32;100.00
4415;BME280;2220;42.670;23.398;2022-12-20T05:29:22;96218.53;;;-2.38;100.00
4415;BME280;2220;42.670;23.398;2022-12-20T05:31:48;96222.53;;;-2.35;100.00
4415;BME280;2220;42.670;23.398;2022-12-20T05:34:13;96222.38;;;-2.34;100.00
4415;BME280;2220;42.670;23.398;2022-12-20T05:36:39;96225.38;;;-2.38;100.00
4415;BME280;2220;42.670;23.398;2022-12-20T05:39:04;96223.13;;;-2.51;100.00
4415;BME280;2220;42.670;23.398;2022-12-20T05:41:30;96223.41;;;-2.54;100.00
4415;BME280;2220;42.670;23.398;2022-12-20T05:43:56;96227.97;;;-2.58;100.00
4415;BME280;2220;42.670;23.398;2022-12-20T05:46:22;96233.97;;;-2.49;100.00
4415;BME280;2220;42.670;23.398;2022-12-20T05:48:47;96234.00;;;-2.59;100.00
4415;BME280;2220;42.670;23.398;2022-12-20T05:51:13;96241.91;;;-2.52;100.00
4415;BME280;2220;42.670;23.398;2022-12-20T05:53:38;96239.50;;;-2.54;100.00
4415;BME280;2220;42.670;23.398;2022-12-20T05:56:04;96245.53;;;-2.45;100.00
4415;BME280;2220;42.670;23.398;2022-12-20T05:58:29;96236.94;;;-2.44;100.00
4415;BME280;2220;42.670;23.398;2022-12-20T06:00:55;96250.50;;;-2.43;100.00
4415;BME280;2220;42.670;23.398;2022-12-20T06:03:20;96247.25;;;-2.36;100.00
4415;BME280;2220;42.670;23.398;2022-12-20T06:05:46;96247.97;;;-2.53;100.00
4415;BME280;2220;42.670;23.398;2022-12-20T06:08:12;96249.28;;;-2.39;100.00
4415;BME280;2220;42.670;23.398;2022-12-20T06:10:39;96261.88;;;-2.28;100.00
4415;BME280;2220;42.670;23.398;2022-12-20T06:13:07;96252.66;;;-2.48;100.00
4415;BME280;2220;42.670;23.398;2022-12-20T06:15:33;96251.44;;;-2.44;100.00
4415;BME280;2220;42.670;23.398;2022-12-20T06:17:58;96261.06;;;-2.29;100.00
4415;BME280;2220;42.670;23.398;2022-12-20T06:20:24;96252.47;;;-2.28;100.00
4415;BME280;2220;42.670;23.398;2022-12-20T06:22:49;96268.41;;;-2.06;100.00
4415;BME280;2220;42.670;23.398;2022-12-20T06:25:15;96261.91;;;-2.01;100.00
4415;BME280;2220;42.670;23.398;2022-12-20T06:27:41;96249.44;;;-2.04;100.00
4415;BME280;2220;42.670;23.398;2022-12-20T06:30:08;96261.09;;;-1.91;100.00
4415;BME280;2220;42.670;23.398;2022-12-20T06:32:34;96247.28;;;-1.99;100.00
4415;BME280;2220;42.670;23.398;2022-12-20T06:35:00;96239.75;;;-2.00;100.00
4415;BME280;2220;42.670;23.398;2022-12-20T06:37:26;96228.97;;;-2.31;100.00
4415;BME280;2220;42.670;23.398;2022-12-20T06:39:52;96239.41;;;-1.87;100.00
4415;BME280;2220;42.670;23.398;2022-12-20T06:42:17;96232.19;;;-1.92;100.00
4415;BME280;2220;42.670;23.398;2022-12-20T06:44:43;96223.53;;;-1.81;100.00
4415;BME280;2220;42.670;23.398;2022-12-20T06:47:08;96213.59;;;-1.84;100.00
4415;BME280;2220;42.670;23.398;2022-12-20T06:49:34;96199.41;;;-2.24;100.00
4415;BME280;2220;42.670;23.398;2022-12-20T06:51:59;96189.56;;;-2.19;100.00
4415;BME280;2220;42.670;23.398;2022-12-20T06:54:25;96196.63;;;-2.03;100.00
4415;BME280;2220;42.670;23.398;2022-12-20T06:56:50;96194.50;;;-2.08;100.00
4415;BME280;2220;42.670;23.398;2022-12-20T06:59:16;96185.78;;;-2.15;100.00
4415;BME280;2220;42.670;23.398;2022-12-20T07:01:41;96177.34;;;-2.15;100.00
4415;BME280;2220;42.670;23.398;2022-12-20T07:04:07;96176.84;;;-2.01;100.00
4415;BME280;2220;42.670;23.398;2022-12-20T07:06:32;96173.88;;;-1.97;100.00
4415;BME280;2220;42.670;23.398;2022-12-20T07:08:58;96167.72;;;-2.04;100.00
4415;BME280;2220;42.670;23.398;2022-12-20T07:11:24;96169.81;;;-1.89;100.00
4415;BME280;2220;42.670;23.398;2022-12-20T07:13:54;96157.59;;;-1.95;100.00
4415;BME280;2220;42.670;23.398;2022-12-20T07:16:20;96167.03;;;-1.78;100.00
4415;BME280;2220;42.670;23.398;2022-12-20T07:18:49;96160.56;;;-1.73;100.00
4415;BME280;2220;42.670;23.398;2022-12-20T07:21:14;96158.66;;;-1.71;100.00
4415;BME280;2220;42.670;23.398;2022-12-20T07:23:41;96164.72;;;-1.54;100.00
4415;BME280;2220;42.670;23.398;2022-12-20T07:26:08;96158.00;;;-1.37;100.00
4415;BME280;2220;42.670;23.398;2022-12-20T07:28:34;96151.97;;;-1.36;100.00
4415;BME280;2220;42.670;23.398;2022-12-20T07:31:02;96135.94;;;-1.38;100.00
4415;BME280;2220;42.670;23.398;2022-12-20T07:33:29;96145.44;;;-1.30;100.00
4415;BME280;2220;42.670;23.398;2022-12-20T07:36:09;96128.22;;;-1.28;100.00
4415;BME280;2220;42.670;23.398;2022-12-20T07:38:35;96127.75;;;-1.24;100.00
4415;BME280;2220;42.670;23.398;2022-12-20T07:41:06;96103.25;;;-1.34;100.00
4415;BME280;2220;42.670;23.398;2022-12-20T07:43:37;96113.88;;;-1.21;100.00
4415;BME280;2220;42.670;23.398;2022-12-20T07:46:03;96111.38;;;-1.13;100.00
4415;BME280;2220;42.670;23.398;2022-12-20T07:48:29;96108.22;;;-1.07;100.00
4415;BME280;2220;42.670;23.398;2022-12-20T07:50:59;96095.97;;;-1.03;100.00
4415;BME280;2220;42.670;23.398;2022-12-20T07:53:26;96090.94;;;-0.87;100.00
